Time;durP1;ratioP1;P1;durP2;ratioP2;P2;SDS_P1;SDS_P2;PMS_P1;PMS_P2;Temp;Humidity;BMP_temperature;BMP_pressure;BME280_temperature;BME280_humidity;BME280_pressure;Samples;Min_cycle;Max_cycle;Signal;HPM_P1;HPM_P2
2023/05/29 00:00:31;;;;;;;28.85;8.30;;;;;;;10.40;100.00;100403.75;5086900;28;20389;-83
2023/05/29 00:03:17;;;;;;;28.00;8.48;;;;;;;10.29;100.00;100394.34;5083491;28;20050;-85
2023/05/29 00:06:03;;;;;;;23.20;7.65;;;;;;;10.22;100.00;100393.31;5079527;28;20115;-85
2023/05/29 00:08:46;;;;;;;25.58;7.88;;;;;;;10.12;100.00;100383.78;5085631;28;20063;-87
2023/05/29 00:11:30;;;;;;;28.55;8.52;;;;;;;10.03;100.00;100387.38;5086140;28;20054;-87
2023/05/29 00:14:14;;;;;;;29.00;7.40;;;;;;;10.03;100.00;100397.88;5079586;28;20075;-84
2023/05/29 00:16:58;;;;;;;29.25;8.93;;;;;;;9.93;100.00;100397.16;5078604;28;20059;-88
2023/05/29 00:19:43;;;;;;;26.85;8.27;;;;;;;9.89;100.00;100393.22;5086198;28;20074;-86
2023/05/29 00:22:27;;;;;;;26.45;7.65;;;;;;;9.85;100.00;100397.94;5084240;28;20088;-83
2023/05/29 00:25:12;;;;;;;33.05;9.52;;;;;;;9.73;100.00;100392.13;5083309;28;20082;-89
2023/05/29 00:27:56;;;;;;;28.83;8.77;;;;;;;9.71;100.00;100388.84;5081980;28;20465;-87
2023/05/29 00:30:41;;;;;;;27.05;9.63;;;;;;;9.73;100.00;100392.13;5087653;28;20069;-87
2023/05/29 00:33:26;;;;;;;32.13;9.23;;;;;;;9.55;100.00;100400.88;5084803;28;20100;-88
2023/05/29 00:36:11;;;;;;;24.42;9.13;;;;;;;9.68;100.00;100397.03;5083567;28;20036;-86
2023/05/29 00:38:55;;;;;;;28.23;8.63;;;;;;;9.58;100.00;100394.53;5079407;28;20039;-87
2023/05/29 00:41:39;;;;;;;22.88;8.70;;;;;;;9.63;100.00;100396.66;5082063;28;20488;-88
2023/05/29 00:44:23;;;;;;;28.98;8.73;;;;;;;9.62;100.00;100395.84;5076273;28;20047;-86
2023/05/29 00:47:07;;;;;;;34.33;8.82;;;;;;;9.54;100.00;100394.00;5078225;28;20043;-87
2023/05/29 00:49:53;;;;;;;32.47;9.77;;;;;;;9.60;100.00;100391.72;5082299;28;20114;-88
2023/05/29 00:52:37;;;;;;;22.88;8.25;;;;;;;9.52;100.00;100395.13;5078100;28;20089;-87
2023/05/29 00:55:22;;;;;;;26.92;8.85;;;;;;;9.39;100.00;100392.91;5080819;28;20075;-87
2023/05/29 00:58:06;;;;;;;35.92;10.15;;;;;;;9.43;100.00;100402.09;5084648;28;20389;-86
2023/05/29 01:00:52;;;;;;;27.73;10.07;;;;;;;9.36;100.00;100393.22;5083077;28;20055;-86
2023/05/29 01:03:36;;;;;;;26.63;10.27;;;;;;;9.37;100.00;100394.84;5081695;28;20036;-87
2023/05/29 01:06:21;;;;;;;37.97;10.70;;;;;;;9.23;100.00;100391.00;5089300;28;20039;-87
2023/05/29 01:09:05;;;;;;;26.88;10.48;;;;;;;9.31;100.00;100403.34;5081870;28;20047;-87
2023/05/29 01:12:12;;;;;;;27.25;10.25;;;;;;;9.33;100.00;100398.75;5082674;28;20586;-87
2023/05/29 01:15:17;;;;;;;33.95;9.70;;;;;;;9.42;100.00;100397.84;5082275;28;20052;-85
2023/05/29 01:18:31;;;;;;;26.25;9.00;;;;;;;9.42;100.00;100409.16;5081202;28;20047;-87
2023/05/29 01:21:15;;;;;;;23.55;8.52;;;;;;;9.40;100.00;100410.28;5084942;28;20506;-86
2023/05/29 01:24:30;;;;;;;22.25;8.80;;;;;;;9.38;100.00;100414.84;5081275;28;20031;-86
2023/05/29 01:27:17;;;;;;;36.55;8.80;;;;;;;9.28;100.00;100415.78;5084207;28;20043;-86
2023/05/29 01:30:03;;;;;;;34.53;9.18;;;;;;;9.24;100.00;100393.47;5079227;28;20478;-84
2023/05/29 01:32:48;;;;;;;30.73;9.05;;;;;;;9.35;100.00;100407.28;5080246;28;20031;-86
2023/05/29 01:35:32;;;;;;;37.75;9.23;;;;;;;9.27;100.00;100394.94;5079636;28;20560;-85
2023/05/29 01:38:16;;;;;;;22.17;6.90;;;;;;;9.29;100.00;100414.78;5082589;28;20512;-84
2023/05/29 01:41:00;;;;;;;22.42;7.88;;;;;;;9.26;100.00;100412.47;5078847;28;20529;-84
2023/05/29 01:43:46;;;;;;;24.15;6.88;;;;;;;9.21;100.00;100406.84;5085445;28;20432;-84
2023/05/29 01:46:30;;;;;;;23.25;7.32;;;;;;;9.19;100.00;100410.63;5085124;28;20039;-84
2023/05/29 01:49:15;;;;;;;21.60;8.43;;;;;;;9.24;100.00;100419.69;5080318;28;20067;-85
2023/05/29 01:51:59;;;;;;;33.47;8.52;;;;;;;9.18;100.00;100422.06;5081459;28;20043;-86
2023/05/29 01:54:44;;;;;;;32.15;8.63;;;;;;;9.12;100.00;100407.78;5082708;28;20089;-85
2023/05/29 01:57:28;;;;;;;27.02;8.07;;;;;;;9.15;100.00;100399.59;5077687;28;20552;-85
2023/05/29 02:00:16;;;;;;;27.05;7.60;;;;;;;9.33;100.00;100411.88;5082515;28;20038;-85
2023/05/29 02:03:00;;;;;;;27.27;8.32;;;;;;;9.29;100.00;100400.84;5078402;28;20509;-84
2023/05/29 02:05:45;;;;;;;28.17;8.10;;;;;;;9.27;100.00;100403.66;5080099;28;20050;-85
2023/05/29 02:08:29;;;;;;;28.35;8.57;;;;;;;9.25;100.00;100405.59;5081886;28;20144;-84
2023/05/29 02:11:14;;;;;;;29.35;8.10;;;;;;;9.19;100.00;100397.53;5082366;28;20120;-84
2023/05/29 02:13:58;;;;;;;26.52;7.30;;;;;;;9.23;100.00;100402.28;5088583;28;20120;-85
2023/05/29 02:16:43;;;;;;;35.05;8.98;;;;;;;9.16;100.00;100405.69;5080414;28;20038;-84
2023/05/29 02:19:27;;;;;;;33.45;7.47;;;;;;;9.19;100.00;100405.38;5082150;28;20127;-85
2023/05/29 02:22:12;;;;;;;26.67;7.55;;;;;;;9.16;100.00;100401.25;5076512;28;20067;-84
2023/05/29 02:24:56;;;;;;;25.05;7.18;;;;;;;9.06;100.00;100382.19;5079777;28;20129;-85
2023/05/29 02:27:40;;;;;;;26.92;7.63;;;;;;;9.11;100.00;100393.03;5082457;28;20055;-87
2023/05/29 02:30:24;;;;;;;21.63;7.20;;;;;;;9.13;100.00;100398.94;5082030;28;20082;-86
2023/05/29 02:33:08;;;;;;;23.02;7.07;;;;;;;8.98;100.00;100394.22;5078232;28;20043;-85
2023/05/29 02:35:52;;;;;;;28.88;7.85;;;;;;;8.99;100.00;100405.53;5079810;28;20120;-84
2023/05/29 02:38:36;;;;;;;31.10;7.43;;;;;;;9.00;100.00;100408.00;5074921;28;20047;-86
2023/05/29 02:41:20;;;;;;;30.17;7.45;;;;;;;8.93;100.00;100406.97;5082590;28;20036;-86
2023/05/29 02:44:04;;;;;;;31.75;7.95;;;;;;;9.02;100.00;100409.63;5079331;28;20051;-86
2023/05/29 02:46:48;;;;;;;26.90;8.88;;;;;;;8.90;100.00;100396.78;5081820;28;20401;-87
2023/05/29 02:49:32;;;;;;;32.50;8.52;;;;;;;9.02;100.00;100396.53;5083804;28;20090;-87
2023/05/29 02:52:16;;;;;;;28.23;8.93;;;;;;;9.21;100.00;100406.84;5079537;28;20102;-87
2023/05/29 02:55:00;;;;;;;29.15;8.68;;;;;;;9.19;100.00;100390.47;5082995;28;20040;-88
2023/05/29 02:57:50;;;;;;;25.35;7.95;;;;;;;9.29;100.00;100401.69;5080913;28;20038;-87
2023/05/29 03:00:35;;;;;;;29.75;8.77;;;;;;;9.19;100.00;100403.56;5085256;28;20086;-86
2023/05/29 03:03:18;;;;;;;24.45;8.25;;;;;;;9.23;100.00;100402.28;5081877;28;20137;-87
2023/05/29 03:06:03;;;;;;;32.35;8.25;;;;;;;9.09;100.00;100411.50;5088341;28;20073;-87
2023/05/29 03:08:48;;;;;;;30.92;8.52;;;;;;;8.97;100.00;100416.16;5083506;28;20071;-87
2023/05/29 03:11:33;;;;;;;34.80;9.48;;;;;;;8.76;100.00;100416.47;5083699;28;20034;-86
2023/05/29 03:14:18;;;;;;;35.53;9.52;;;;;;;8.78;100.00;100413.69;5081953;28;20458;-86
2023/05/29 03:17:09;;;;;;;35.83;10.60;;;;;;;8.61;100.00;100402.22;5082169;28;20127;-87
2023/05/29 03:19:53;;;;;;;42.40;10.70;;;;;;;8.61;100.00;100397.81;5078430;28;20036;-87
2023/05/29 03:22:37;;;;;;;32.78;9.85;;;;;;;8.65;100.00;100407.03;5076808;28;20113;-88
2023/05/29 03:25:22;;;;;;;25.52;8.82;;;;;;;8.62;100.00;100394.22;5083872;28;20044;-87
2023/05/29 03:28:06;;;;;;;34.20;9.13;;;;;;;8.72;100.00;100407.22;5083267;28;20597;-87
2023/05/29 03:30:51;;;;;;;30.60;8.52;;;;;;;8.68;100.00;100403.28;5077586;28;20513;-88
2023/05/29 03:33:40;;;;;;;28.13;8.82;;;;;;;8.69;100.00;100400.53;5084387;28;20470;-86
2023/05/29 03:36:24;;;;;;;25.73;7.97;;;;;;;8.71;100.00;100403.81;5087396;28;20048;-86
2023/05/29 03:39:08;;;;;;;35.17;8.70;;;;;;;8.67;100.00;100401.63;5084368;28;20051;-86
2023/05/29 03:41:53;;;;;;;31.20;8.85;;;;;;;8.83;100.00;100404.41;5084212;28;20516;-86
2023/05/29 03:44:37;;;;;;;27.77;9.00;;;;;;;8.79;100.00;100404.84;5077282;28;20055;-85
2023/05/29 03:47:22;;;;;;;24.92;9.02;;;;;;;8.84;100.00;100399.97;5082522;28;20039;-86
2023/05/29 03:50:06;;;;;;;26.60;8.50;;;;;;;8.78;100.00;100397.97;5077004;28;20102;-87
2023/05/29 03:52:50;;;;;;;25.80;7.72;;;;;;;8.86;100.00;100398.06;5090181;28;20097;-83
2023/05/29 03:55:34;;;;;;;29.70;8.10;;;;;;;8.86;100.00;100408.53;5082089;28;20093;-84
2023/05/29 03:58:18;;;;;;;28.23;8.88;;;;;;;8.80;100.00;100406.50;5088405;28;20109;-85
2023/05/29 04:01:02;;;;;;;28.52;8.52;;;;;;;8.78;100.00;100397.97;5085597;28;20051;-82
2023/05/29 04:03:46;;;;;;;20.02;7.60;;;;;;;8.77;100.00;100404.19;5082542;28;20051;-84
2023/05/29 04:06:30;;;;;;;22.08;8.25;;;;;;;8.81;100.00;100418.63;5085486;28;20047;-84
2023/05/29 04:09:14;;;;;;;20.60;8.98;;;;;;;8.83;100.00;100421.91;5081918;28;20070;-85
2023/05/29 04:12:02;;;;;;;27.35;9.02;;;;;;;8.74;100.00;100428.84;5084581;28;20051;-86
2023/05/29 04:14:46;;;;;;;29.08;8.23;;;;;;;8.77;100.00;100414.66;5082205;28;20039;-87
2023/05/29 04:17:30;;;;;;;24.98;8.00;;;;;;;8.79;100.00;100417.94;5083796;28;20047;-86
2023/05/29 04:20:14;;;;;;;40.60;9.18;;;;;;;8.77;100.00;100432.97;5084260;28;20047;-84
2023/05/29 04:22:58;;;;;;;32.03;7.90;;;;;;;8.65;100.00;100424.50;5082686;28;20043;-84
2023/05/29 04:25:43;;;;;;;25.40;7.68;;;;;;;8.79;100.00;100431.03;5079019;28;20039;-84
2023/05/29 04:28:27;;;;;;;29.13;8.02;;;;;;;8.79;100.00;100425.78;5080571;28;20064;-83
2023/05/29 04:31:13;;;;;;;25.95;8.27;;;;;;;8.79;100.00;100436.28;5082598;28;20044;-83
2023/05/29 04:34:00;;;;;;;19.52;7.10;;;;;;;8.83;100.00;100437.63;5080732;28;20062;-83
2023/05/29 04:36:44;;;;;;;21.52;6.78;;;;;;;8.94;100.00;100444.44;5079059;28;20166;-83
2023/05/29 04:39:29;;;;;;;24.48;7.35;;;;;;;8.91;100.00;100442.09;5080356;28;20462;-83
2023/05/29 04:42:14;;;;;;;22.95;6.95;;;;;;;8.80;100.00;100437.91;5081565;28;20504;-86
2023/05/29 04:45:00;;;;;;;26.02;8.20;;;;;;;8.83;100.00;100441.06;5080948;28;20047;-86
2023/05/29 04:47:44;;;;;;;30.17;7.72;;;;;;;8.89;100.00;100426.56;5082970;28;20063;-85
2023/05/29 04:50:30;;;;;;;21.50;7.32;;;;;;;9.11;100.00;100432.31;5077606;28;20125;-85
2023/05/29 04:53:15;;;;;;;24.58;7.35;;;;;;;9.13;100.00;100435.63;5087417;28;20055;-86
2023/05/29 04:55:59;;;;;;;17.63;6.93;;;;;;;9.21;100.00;100448.78;5084412;28;20115;-84
2023/05/29 04:58:43;;;;;;;18.98;6.47;;;;;;;9.03;100.00;100447.94;5085416;28;20066;-84
2023/05/29 05:01:28;;;;;;;18.17;6.55;;;;;;;9.41;100.00;100446.81;5083737;28;20090;-85
2023/05/29 05:04:12;;;;;;;17.00;6.20;;;;;;;9.43;100.00;100438.78;5081034;28;20174;-84
2023/05/29 05:06:57;;;;;;;19.92;6.25;;;;;;;9.58;100.00;100445.13;5080502;28;20047;-85
2023/05/29 05:09:41;;;;;;;11.80;5.38;;;;;;;9.92;100.00;100454.03;5082283;28;20066;-84
2023/05/29 05:12:24;;;;;;;20.98;5.90;;;;;;;9.77;100.00;100451.16;5077735;28;20039;-85
2023/05/29 05:15:09;;;;;;;21.38;6.13;;;;;;;9.88;100.00;100447.44;5079337;28;20047;-86
2023/05/29 05:17:53;;;;;;;15.30;6.63;;;;;;;10.20;100.00;100445.16;5079025;28;20517;-85
2023/05/29 05:20:37;;;;;;;22.15;6.82;;;;;;;10.38;100.00;100461.63;5079273;28;20048;-85
2023/05/29 05:23:21;;;;;;;21.63;6.20;;;;;;;10.62;100.00;100452.25;5084813;28;20097;-85
2023/05/29 05:26:05;;;;;;;19.58;6.22;;;;;;;10.82;100.00;100449.34;5081564;28;20459;-86
2023/05/29 05:28:50;;;;;;;17.58;5.85;;;;;;;11.00;100.00;100452.66;5077030;28;20414;-85
2023/05/29 05:31:34;;;;;;;16.05;5.55;;;;;;;11.14;100.00;100452.97;5083820;28;20047;-83
2023/05/29 05:34:18;;;;;;;16.33;5.65;;;;;;;11.29;100.00;100448.72;5079666;28;20043;-84
2023/05/29 05:37:02;;;;;;;20.75;5.65;;;;;;;11.36;100.00;100461.19;5083573;28;20181;-85
2023/05/29 05:39:47;;;;;;;12.30;5.53;;;;;;;11.57;100.00;100458.88;5085716;28;20043;-84
2023/05/29 05:42:31;;;;;;;15.48;5.72;;;;;;;11.58;100.00;100454.47;5077327;28;20531;-83
2023/05/29 05:45:15;;;;;;;15.95;5.68;;;;;;;11.90;100.00;100449.31;5083759;28;20120;-82
2023/05/29 05:47:58;;;;;;;;;;;;;;;11.43;100.00;100456.94;5083540;28;20513;-83
2023/05/29 05:50:43;;;;;;;15.32;5.35;;;;;;;11.67;100.00;100460.53;5080599;28;20405;-86
2023/05/29 05:53:26;;;;;;;14.25;4.97;;;;;;;11.56;100.00;100462.50;5079259;28;20613;-87
2023/05/29 05:56:10;;;;;;;13.40;5.30;;;;;;;11.70;100.00;100453.16;5081329;28;20934;-86
2023/05/29 05:58:54;;;;;;;16.20;5.65;;;;;;;11.97;100.00;100458.16;5076264;28;20051;-87
2023/05/29 06:01:40;;;;;;;12.20;4.97;;;;;;;12.04;100.00;100448.66;5077713;28;20505;-86
2023/05/29 06:04:24;;;;;;;14.13;5.25;;;;;;;11.92;100.00;100456.06;5083920;28;20082;-88
2023/05/29 06:07:10;;;;;;;15.15;5.10;;;;;;;12.19;100.00;100450.59;5081155;28;20035;-83
2023/05/29 06:09:54;;;;;;;12.27;4.47;;;;;;;12.24;100.00;100454.34;5084863;28;20093;-82
2023/05/29 06:12:38;;;;;;;17.05;5.55;;;;;;;12.63;100.00;100463.22;5075215;28;20501;-81
2023/05/29 06:15:22;;;;;;;11.90;4.63;;;;;;;12.40;100.00;100464.00;5077595;28;20397;-83
2023/05/29 06:18:07;;;;;;;;;;;;;;;12.10;100.00;100463.75;5075350;28;20393;-87
2023/05/29 06:20:51;;;;;;;13.02;4.90;;;;;;;12.23;100.00;100451.88;5080099;28;19920;-81
2023/05/29 06:23:36;;;;;;;10.25;4.95;;;;;;;12.66;100.00;100444.44;5077655;28;20405;-79
2023/05/29 06:26:21;;;;;;;13.57;4.88;;;;;;;12.50;100.00;100462.94;5077285;28;20093;-81
2023/05/29 06:29:06;;;;;;;13.95;4.35;;;;;;;12.83;100.00;100473.31;5078805;28;20494;-82
2023/05/29 06:31:50;;;;;;;16.92;4.70;;;;;;;12.86;100.00;100467.69;5076566;28;20089;-83
2023/05/29 06:34:35;;;;;;;14.45;4.75;;;;;;;12.89;100.00;100467.34;5077454;28;20044;-84
2023/05/29 06:37:19;;;;;;;14.15;4.57;;;;;;;12.91;100.00;100469.81;5073771;28;20047;-84
2023/05/29 06:40:04;;;;;;;10.60;4.35;;;;;;;13.37;100.00;100463.72;5076465;28;20043;-84
2023/05/29 06:42:49;;;;;;;16.08;4.85;;;;;;;12.80;100.00;100463.94;5071187;28;20043;-82
2023/05/29 06:45:33;;;;;;;12.07;5.03;;;;;;;13.55;100.00;100471.34;5075212;28;20047;-83
2023/05/29 06:48:17;;;;;;;11.85;4.97;;;;;;;13.66;100.00;100476.19;5074972;28;20089;-83
2023/05/29 06:51:08;;;;;;;17.65;5.18;;;;;;;13.75;100.00;100492.75;5080828;28;20094;-85
2023/05/29 06:53:52;;;;;;;19.00;4.68;;;;;;;12.88;100.00;100483.34;5075856;28;20429;-84
2023/05/29 06:56:36;;;;;;;17.65;4.78;;;;;;;12.42;100.00;100498.88;5071723;28;20051;-84
2023/05/29 06:59:20;;;;;;;13.18;4.43;;;;;;;12.56;100.00;100489.44;5082652;28;20086;-83
2023/05/29 07:02:05;;;;;;;12.70;4.55;;;;;;;12.49;100.00;100492.91;5078142;28;20559;-85
2023/05/29 07:04:49;;;;;;;13.85;4.28;;;;;;;12.38;100.00;100497.59;5080294;28;20058;-85
2023/05/29 07:07:33;;;;;;;19.75;4.57;;;;;;;12.48;100.00;100491.28;5081461;28;20570;-85
2023/05/29 07:10:17;;;;;;;15.63;4.10;;;;;;;12.64;100.00;100493.84;5081176;28;20108;-86
2023/05/29 07:13:01;;;;;;;17.30;4.75;;;;;;;12.30;100.00;100497.59;5082679;28;20047;-86
2023/05/29 07:15:46;;;;;;;17.58;4.30;;;;;;;12.69;100.00;100498.59;5081492;28;20047;-84
2023/05/29 07:18:30;;;;;;;15.10;4.38;;;;;;;12.24;100.00;100501.72;5076338;28;20079;-85
2023/05/29 07:21:16;;;;;;;13.18;3.75;;;;;;;12.73;100.00;100485.88;5079065;28;20051;-85
2023/05/29 07:24:00;;;;;;;13.27;4.18;;;;;;;12.75;100.00;100502.34;5073311;28;20071;-86
2023/05/29 07:26:45;;;;;;;16.98;4.60;;;;;;;12.76;100.00;100502.19;5078575;28;20047;-84
2023/05/29 07:29:29;;;;;;;12.63;4.25;;;;;;;12.43;100.00;100500.50;5073071;28;20056;-86
2023/05/29 07:32:13;;;;;;;17.05;4.72;;;;;;;12.45;100.00;100491.63;5075002;28;20093;-84
2023/05/29 07:34:57;;;;;;;10.10;4.43;;;;;;;12.70;100.00;100500.25;5071645;28;20457;-87
2023/05/29 07:37:41;;;;;;;10.30;4.07;;;;;;;13.03;100.00;100499.22;5081773;28;20166;-85
2023/05/29 07:40:25;;;;;;;12.95;4.63;;;;;;;13.64;100.00;100495.84;5076338;28;20040;-87
2023/05/29 07:43:10;;;;;;;14.52;4.15;;;;;;;13.90;100.00;100500.72;5081107;28;20572;-85
2023/05/29 07:45:54;;;;;;;12.93;4.95;;;;;;;13.92;100.00;100501.34;5077990;28;20113;-84
2023/05/29 07:48:38;;;;;;;13.52;4.60;;;;;;;14.16;100.00;100501.28;5078950;28;20046;-81
2023/05/29 07:51:22;;;;;;;12.38;4.35;;;;;;;14.11;100.00;100499.19;5071362;28;20119;-85
2023/05/29 07:54:06;;;;;;;11.82;4.00;;;;;;;14.39;100.00;100498.53;5081047;28;20108;-83
2023/05/29 07:56:49;;;;;;;14.60;3.90;;;;;;;14.45;99.90;100502.25;5072585;28;20044;-84
2023/05/29 07:59:35;;;;;;;10.77;3.78;;;;;;;14.78;98.83;100497.38;5077310;28;20318;-84
2023/05/29 08:02:19;;;;;;;12.88;4.28;;;;;;;14.62;98.53;100514.25;5077848;28;20133;-83
2023/05/29 08:05:03;;;;;;;12.57;3.63;;;;;;;14.68;97.20;100513.50;5077801;28;20457;-84
2023/05/29 08:07:48;;;;;;;10.48;3.70;;;;;;;14.98;96.97;100513.47;5079703;28;20174;-83
2023/05/29 08:10:32;;;;;;;9.40;3.83;;;;;;;14.77;95.04;100522.19;5080077;28;20174;-85
2023/05/29 08:13:16;;;;;;;11.02;3.58;;;;;;;15.32;92.05;100520.91;5079267;28;20105;-82
2023/05/29 08:16:00;;;;;;;8.10;2.95;;;;;;;15.31;90.76;100514.00;5077793;28;20398;-82
2023/05/29 08:18:44;;;;;;;12.70;3.95;;;;;;;15.46;90.43;100520.03;5083433;28;20038;-85
2023/05/29 08:21:28;;;;;;;11.52;3.72;;;;;;;15.87;87.96;100523.00;5082464;28;20044;-87
2023/05/29 08:24:12;;;;;;;12.00;4.18;;;;;;;15.43;87.81;100531.00;5085539;28;20044;-85
2023/05/29 08:26:56;;;;;;;15.85;3.70;;;;;;;15.40;88.16;100526.91;5082131;28;20039;-85
2023/05/29 08:29:40;;;;;;;11.40;3.50;;;;;;;15.52;87.29;100537.78;5084380;28;20405;-85
2023/05/29 08:32:24;;;;;;;13.18;3.63;;;;;;;15.59;87.30;100534.41;5086853;28;20075;-87
2023/05/29 08:35:08;;;;;;;11.63;3.75;;;;;;;16.21;85.71;100535.50;5079871;28;20093;-86
2023/05/29 08:37:52;;;;;;;9.93;3.90;;;;;;;16.47;85.61;100530.50;5082492;28;20102;-87
2023/05/29 08:40:36;;;;;;;;;;;;;;;17.18;84.93;100537.31;5084940;28;20137;-86
2023/05/29 08:43:22;;;;;;;11.07;3.72;;;;;;;17.22;81.64;100530.59;5089539;28;19919;-85
2023/05/29 08:46:07;;;;;;;12.02;4.00;;;;;;;16.63;80.30;100534.69;5080804;28;20078;-84
2023/05/29 08:48:54;;;;;;;7.82;3.85;;;;;;;16.58;81.86;100535.28;5087067;28;20039;-83
2023/05/29 08:51:43;;;;;;;11.80;4.40;;;;;;;15.79;82.79;100535.38;5081455;28;20066;-86
2023/05/29 08:54:32;;;;;;;9.10;4.10;;;;;;;15.50;82.88;100536.34;5084677;28;20444;-84
2023/05/29 08:57:16;;;;;;;13.75;3.83;;;;;;;15.13;84.78;100542.53;5079185;28;20398;-82
2023/05/29 09:00:01;;;;;;;15.70;4.75;;;;;;;15.03;84.08;100536.69;5080208;28;20038;-81
2023/05/29 09:02:45;;;;;;;11.23;3.78;;;;;;;14.97;84.64;100533.00;5077616;28;20146;-81
2023/05/29 09:05:30;;;;;;;10.93;4.47;;;;;;;15.49;83.47;100538.19;5081810;28;20047;-80
2023/05/29 09:08:15;;;;;;;10.40;3.80;;;;;;;15.41;83.10;100533.03;5075888;28;20108;-80
2023/05/29 09:10:59;;;;;;;12.18;4.68;;;;;;;16.08;81.46;100536.22;5086292;28;20448;-82
2023/05/29 09:13:44;;;;;;;9.27;4.35;;;;;;;15.90;82.01;100535.88;5084746;28;20117;-83
2023/05/29 09:16:28;;;;;;;11.65;4.32;;;;;;;16.29;80.74;100537.16;5082240;28;20047;-82
2023/05/29 09:19:12;;;;;;;11.07;4.70;;;;;;;16.58;81.86;100543.22;5077710;28;20074;-87
2023/05/29 09:22:15;;;;;;;14.90;4.53;;;;;;;16.84;80.79;100537.22;5080026;28;20075;-85
2023/05/29 09:25:00;;;;;;;11.02;4.00;;;;;;;18.15;78.02;100540.63;5082962;28;20035;-83
2023/05/29 09:27:43;;;;;;;12.52;4.63;;;;;;;18.17;76.86;100528.72;5082942;28;20075;-84
2023/05/29 09:30:47;;;;;;;10.07;4.47;;;;;;;18.63;74.40;100529.59;5080861;28;20429;-86
2023/05/29 09:33:31;;;;;;;12.50;4.38;;;;;;;18.11;75.46;100541.03;5082127;28;20194;-80
2023/05/29 09:36:22;;;;;;;10.98;4.20;;;;;;;18.27;74.24;100521.16;5072450;28;20055;-76
2023/05/29 09:39:09;;;;;;;13.88;4.25;;;;;;;18.06;75.42;100527.53;5071348;28;20051;-74
2023/05/29 09:41:53;;;;;;;11.02;4.30;;;;;;;17.92;74.02;100532.03;5076058;28;20062;-75
2023/05/29 09:44:38;;;;;;;10.38;4.10;;;;;;;18.01;73.52;100545.91;5073484;28;20046;-75
2023/05/29 09:47:23;;;;;;;10.40;4.93;;;;;;;17.43;75.23;100531.41;5073232;28;20047;-75
2023/05/29 09:50:19;;;;;;;11.88;4.20;;;;;;;18.11;76.98;100538.38;5087849;28;20051;-76
2023/05/29 09:53:03;;;;;;;8.63;4.13;;;;;;;18.06;75.22;100537.34;5085104;28;20177;-75
2023/05/29 09:55:50;;;;;;;12.73;5.18;;;;;;;18.06;74.46;100532.84;5071653;28;20047;-75
2023/05/29 09:58:38;;;;;;;11.95;4.50;;;;;;;17.75;73.52;100531.66;5069244;28;20047;-75
2023/05/29 10:01:24;;;;;;;9.18;4.22;;;;;;;17.33;75.22;100528.38;5068789;28;20043;-74
2023/05/29 10:04:11;;;;;;;15.85;4.55;;;;;;;16.21;77.41;100543.44;5069556;28;21746;-76
2023/05/29 10:06:57;;;;;;;10.70;4.65;;;;;;;16.08;78.73;100533.56;5072550;28;20081;-79
2023/05/29 10:09:44;;;;;;;16.75;6.25;;;;;;;16.48;77.79;100532.16;5074865;28;20052;-81
2023/05/29 10:12:29;;;;;;;21.27;6.35;;;;;;;16.05;79.38;100528.66;5082180;28;20051;-78
2023/05/29 10:15:15;;;;;;;15.45;5.47;;;;;;;16.25;80.23;100522.66;5068743;28;20047;-78
2023/05/29 10:18:04;;;;;;;13.95;4.95;;;;;;;15.92;79.76;100529.38;5070089;28;20042;-76
2023/05/29 10:20:55;;;;;;;9.07;4.07;;;;;;;16.54;78.57;100526.06;5067007;28;20043;-77
2023/05/29 10:23:45;;;;;;;10.38;4.47;;;;;;;17.11;77.48;100525.88;5068014;28;20048;-77
2023/05/29 10:26:32;;;;;;;9.85;4.30;;;;;;;18.05;77.75;100515.28;5069605;28;20055;-75
2023/05/29 10:29:26;;;;;;;14.52;5.07;;;;;;;17.65;75.14;100525.91;5081251;28;20106;-80
2023/05/29 10:32:47;;;;;;;11.43;4.00;;;;;;;17.35;75.49;100511.19;5066162;28;20070;-76
2023/05/29 10:35:55;;;;;;;12.93;4.75;;;;;;;18.69;74.91;100502.19;5076923;28;20087;-78
2023/05/29 10:38:45;;;;;;;13.68;5.53;;;;;;;18.16;73.27;100515.66;5072916;28;20092;-76
2023/05/29 10:41:31;;;;;;;12.20;4.00;;;;;;;18.84;71.63;100506.38;5073473;28;20051;-77
2023/05/29 10:44:30;;;;;;;8.95;4.03;;;;;;;19.04;72.66;100519.63;5064628;28;20042;-76
2023/05/29 10:47:23;;;;;;;9.35;4.35;;;;;;;19.32;72.23;100512.28;5070274;28;20177;-77
2023/05/29 10:50:09;;;;;;;11.63;4.50;;;;;;;19.26;71.50;100512.13;5078056;28;20039;-77
2023/05/29 10:52:54;;;;;;;8.02;4.43;;;;;;;19.49;69.90;100513.38;5083509;28;20070;-78
2023/05/29 10:55:39;;;;;;;11.95;4.65;;;;;;;20.10;70.50;100516.31;5076376;28;20596;-78
2023/05/29 10:58:25;;;;;;;11.40;4.28;;;;;;;20.03;69.73;100504.88;5074456;28;20169;-78
2023/05/29 11:01:09;;;;;;;8.50;4.40;;;;;;;19.63;68.47;100506.06;5067020;28;20085;-76
2023/05/29 11:04:13;;;;;;;10.02;4.10;;;;;;;19.29;68.98;100502.06;5068541;28;20052;-77
2023/05/29 11:06:59;;;;;;;11.10;4.47;;;;;;;18.61;69.31;100513.06;5067555;28;20476;-76
2023/05/29 11:09:44;;;;;;;8.30;4.05;;;;;;;18.96;69.18;100509.19;5071215;28;20117;-77
2023/05/29 11:12:35;;;;;;;8.38;4.07;;;;;;;18.95;69.37;100511.03;5068613;28;20068;-79
2023/05/29 11:15:19;;;;;;;9.32;3.92;;;;;;;18.95;68.39;100513.69;5072823;28;20439;-77
2023/05/29 11:18:08;;;;;;;12.60;4.43;;;;;;;18.34;69.07;100515.81;5066601;28;20472;-76
2023/05/29 11:20:59;;;;;;;20.38;4.50;;;;;;;18.93;70.25;100510.44;5072054;28;20395;-78
2023/05/29 11:23:47;;;;;;;11.55;4.43;;;;;;;19.09;69.27;100513.66;5079327;28;20512;-79
2023/05/29 11:26:33;;;;;;;9.45;4.30;;;;;;;19.20;69.39;100504.97;5079599;28;20524;-76
2023/05/29 11:29:28;;;;;;;10.65;4.38;;;;;;;18.78;70.54;100501.94;5072908;28;20559;-76
2023/05/29 11:32:16;;;;;;;12.13;4.60;;;;;;;18.47;68.97;100492.84;5076624;28;20117;-77
2023/05/29 11:35:07;;;;;;;8.38;4.00;;;;;;;18.31;69.56;100500.31;5079706;28;21617;-79
2023/05/29 11:37:51;;;;;;;11.02;4.93;;;;;;;18.29;70.97;100510.31;5073967;28;20100;-81
2023/05/29 11:40:37;;;;;;;12.75;4.40;;;;;;;17.97;70.74;100512.81;5073843;28;20588;-77
2023/05/29 11:43:22;;;;;;;9.88;4.38;;;;;;;18.45;70.67;100508.22;5078679;28;20038;-76
2023/05/29 11:46:19;;;;;;;10.93;4.07;;;;;;;18.72;70.85;100508.09;5073741;28;20517;-78
2023/05/29 11:49:03;;;;;;;11.10;4.40;;;;;;;18.24;72.53;100504.81;5063482;28;20566;-78
2023/05/29 11:51:47;;;;;;;9.23;4.38;;;;;;;18.81;72.21;100488.19;5072248;28;20523;-77
2023/05/29 11:54:34;;;;;;;9.40;4.30;;;;;;;18.84;69.60;100499.25;5069370;28;21950;-77
2023/05/29 11:57:22;;;;;;;11.20;5.13;;;;;;;18.65;69.80;100503.63;5075588;28;20055;-77
2023/05/29 12:00:07;;;;;;;9.98;4.53;;;;;;;18.50;70.37;100495.13;5068610;28;20068;-78
2023/05/29 12:02:52;;;;;;;11.57;4.57;;;;;;;18.02;70.65;100499.75;5076661;28;20121;-78
2023/05/29 12:05:55;;;;;;;9.60;4.65;;;;;;;18.07;70.63;100504.44;5079781;28;20078;-78
2023/05/29 12:08:39;;;;;;;11.85;4.57;;;;;;;17.74;70.99;100506.13;5073499;28;20085;-81
2023/05/29 12:11:23;;;;;;;6.53;4.43;;;;;;;18.49;71.16;100488.16;5080354;28;20040;-82
2023/05/29 12:14:07;;;;;;;;;;;;;;;18.54;70.88;100502.44;5077142;28;20452;-78
2023/05/29 12:16:51;;;;;;;8.68;4.28;;;;;;;18.54;69.64;100494.47;5080742;28;19958;-77
2023/05/29 12:19:36;;;;;;;12.65;4.15;;;;;;;18.29;70.27;100494.38;5079316;28;20079;-76
2023/05/29 12:22:40;;;;;;;12.63;3.97;;;;;;;18.40;71.38;100495.56;5082516;28;20382;-76
2023/05/29 12:25:24;;;;;;;9.75;3.95;;;;;;;18.83;69.67;100491.47;5078746;28;20051;-76
2023/05/29 12:28:08;;;;;;;10.15;4.53;;;;;;;18.76;68.96;100482.72;5084301;28;20123;-77
2023/05/29 12:30:58;;;;;;;9.52;3.83;;;;;;;18.68;69.46;100492.59;5078940;28;20062;-77
2023/05/29 12:33:43;;;;;;;8.30;4.15;;;;;;;18.44;69.42;100488.78;5073370;28;20064;-78
2023/05/29 12:36:28;;;;;;;12.57;3.65;;;;;;;18.64;68.66;100479.91;5080903;28;20101;-78
2023/05/29 12:39:12;;;;;;;8.95;4.50;;;;;;;18.30;69.38;100477.41;5082730;28;20039;-78
2023/05/29 12:41:56;;;;;;;7.80;4.10;;;;;;;18.49;69.02;100498.81;5080592;28;20090;-79